createdAt,value
2023-08-29T00:01:55.652Z,7.10
2023-08-29T00:04:24.536Z,7.30
2023-08-29T00:06:52.056Z,6.70
2023-08-29T00:09:19.573Z,7.40
2023-08-29T00:11:47.051Z,8.10
2023-08-29T00:14:14.534Z,9.00
2023-08-29T00:16:42.120Z,8.53
2023-08-29T00:19:09.610Z,8.77
2023-08-29T00:21:38.473Z,8.98
2023-08-29T00:24:07.498Z,7.82
2023-08-29T00:26:35.002Z,8.38
2023-08-29T00:29:02.616Z,6.77
2023-08-29T00:31:30.156Z,5.35
2023-08-29T00:33:57.658Z,5.15
2023-08-29T00:36:25.184Z,4.45
2023-08-29T00:38:54.193Z,4.60
2023-08-29T00:41:21.719Z,4.77
2023-08-29T00:43:49.225Z,4.00
2023-08-29T00:46:17.040Z,5.30
2023-08-29T00:48:44.900Z,5.78
2023-08-29T00:51:12.665Z,7.13
2023-08-29T00:53:40.252Z,7.83
2023-08-29T00:56:09.148Z,7.72
2023-08-29T00:58:37.094Z,7.95
2023-08-29T01:01:04.764Z,7.90
2023-08-29T01:03:32.716Z,6.82
2023-08-29T01:06:00.201Z,6.33
2023-08-29T01:08:27.786Z,5.40
2023-08-29T01:11:02.950Z,4.95
2023-08-29T01:13:39.987Z,5.13
2023-08-29T01:16:11.044Z,5.13
2023-08-29T01:18:40.080Z,5.90
2023-08-29T01:21:19.984Z,6.00
2023-08-29T01:23:55.805Z,6.60
2023-08-29T01:26:25.577Z,7.63
2023-08-29T01:28:53.385Z,7.88
2023-08-29T01:31:22.284Z,7.47
2023-08-29T01:33:49.932Z,8.23
2023-08-29T01:36:17.395Z,8.40
2023-08-29T01:38:44.880Z,7.75
2023-08-29T01:41:12.367Z,7.10
2023-08-29T01:43:41.220Z,6.67
2023-08-29T01:46:08.725Z,6.55
2023-08-29T01:48:36.879Z,7.75
2023-08-29T01:51:04.407Z,7.75
2023-08-29T01:53:31.947Z,7.30
2023-08-29T01:56:01.373Z,6.60
2023-08-29T01:58:29.718Z,6.43
2023-08-29T02:01:09.866Z,6.20
2023-08-29T02:03:46.603Z,7.07
2023-08-29T02:06:14.792Z,7.70
2023-08-29T02:08:43.494Z,8.17
2023-08-29T02:11:10.989Z,8.13
2023-08-29T02:13:38.487Z,8.30
2023-08-29T02:16:07.362Z,7.30
2023-08-29T02:18:34.921Z,9.05
2023-08-29T02:21:02.458Z,10.10
2023-08-29T02:23:29.968Z,9.98
2023-08-29T02:26:04.873Z,9.00
2023-08-29T02:28:35.189Z,7.88
2023-08-29T02:31:07.598Z,6.80
2023-08-29T02:33:38.247Z,8.13
2023-08-29T02:36:06.555Z,4.88
2023-08-29T02:38:34.396Z,3.65
2023-08-29T02:41:02.080Z,4.60
2023-08-29T02:43:29.891Z,4.18
2023-08-29T02:45:57.429Z,3.50
2023-08-29T02:48:26.354Z,6.18
2023-08-29T02:50:53.856Z,7.00
2023-08-29T02:53:22.986Z,4.47
2023-08-29T02:55:52.032Z,3.90
2023-08-29T02:58:19.807Z,4.73
2023-08-29T03:00:48.465Z,5.82
2023-08-29T03:03:16.138Z,5.45
2023-08-29T03:05:54.632Z,5.43
2023-08-29T03:08:22.153Z,5.68
2023-08-29T03:10:49.814Z,6.50
2023-08-29T03:13:18.897Z,5.78
2023-08-29T03:15:46.468Z,6.28
2023-08-29T03:18:14.030Z,9.07
2023-08-29T03:20:41.885Z,8.77
2023-08-29T03:23:10.725Z,9.20
2023-08-29T03:25:38.472Z,10.90
2023-08-29T03:28:07.263Z,11.00
2023-08-29T03:30:35.116Z,11.68
2023-08-29T03:33:03.071Z,12.18
2023-08-29T03:35:30.974Z,11.47
2023-08-29T03:37:58.826Z,11.98
2023-08-29T03:40:27.693Z,11.10
2023-08-29T03:42:55.187Z,11.65
2023-08-29T03:45:22.947Z,11.68
2023-08-29T03:47:50.488Z,10.10
2023-08-29T03:50:21.547Z,7.35
2023-08-29T03:52:49.979Z,6.63
2023-08-29T03:55:17.616Z,5.65
2023-08-29T03:57:46.428Z,6.30
2023-08-29T04:00:15.766Z,7.03
2023-08-29T04:02:43.438Z,7.97
2023-08-29T04:05:16.701Z,8.23
2023-08-29T04:07:45.457Z,8.85
2023-08-29T04:10:14.575Z,7.88
2023-08-29T04:12:42.233Z,7.70
2023-08-29T04:15:13.551Z,7.90
2023-08-29T04:17:41.168Z,7.97
2023-08-29T04:20:10.666Z,7.97
2023-08-29T04:22:39.283Z,7.93
2023-08-29T04:25:07.888Z,7.77
2023-08-29T04:27:36.389Z,7.32
2023-08-29T04:30:04.977Z,7.55
2023-08-29T04:32:35.384Z,7.22
2023-08-29T04:35:03.845Z,6.88
2023-08-29T04:37:31.334Z,6.50
2023-08-29T04:39:58.846Z,7.47
2023-08-29T04:42:26.381Z,8.57
2023-08-29T04:44:54.766Z,7.90
2023-08-29T04:47:22.338Z,8.43
2023-08-29T04:49:51.188Z,9.57
2023-08-29T04:52:18.737Z,9.98
2023-08-29T04:54:46.267Z,11.68
2023-08-29T04:57:14.214Z,12.40
2023-08-29T04:59:41.735Z,13.90
2023-08-29T05:02:09.726Z,13.37
2023-08-29T05:04:37.686Z,14.20
2023-08-29T05:07:06.662Z,14.18
2023-08-29T05:09:34.160Z,14.50
2023-08-29T05:12:01.690Z,14.52
2023-08-29T05:14:29.195Z,15.33
2023-08-29T05:16:57.596Z,14.40
2023-08-29T05:19:25.115Z,14.30
2023-08-29T05:21:52.676Z,12.90
2023-08-29T05:24:21.539Z,8.23
2023-08-29T05:26:49.693Z,6.70
2023-08-29T05:29:17.207Z,5.25
2023-08-29T05:31:44.764Z,4.75
2023-08-29T05:34:12.330Z,4.47
2023-08-29T05:36:39.800Z,5.65
2023-08-29T05:39:07.432Z,5.20
2023-08-29T05:41:36.338Z,6.35
2023-08-29T05:44:04.167Z,6.53
2023-08-29T05:46:32.212Z,7.70
2023-08-29T05:49:00.676Z,10.15
2023-08-29T05:51:28.275Z,10.50
2023-08-29T05:53:55.940Z,7.50
2023-08-29T05:56:23.462Z,7.90
2023-08-29T05:58:52.310Z,8.60
2023-08-29T06:01:19.894Z,8.07
2023-08-29T06:03:48.621Z,8.57
2023-08-29T06:06:16.694Z,8.35
2023-08-29T06:08:45.598Z,8.60
2023-08-29T06:11:13.245Z,7.43
2023-08-29T06:13:40.740Z,8.10
2023-08-29T06:16:09.775Z,8.60
2023-08-29T06:18:37.286Z,7.88
2023-08-29T06:21:06.038Z,9.52
2023-08-29T06:23:33.575Z,9.50
2023-08-29T06:26:01.145Z,9.65
2023-08-29T06:28:29.524Z,9.90
2023-08-29T06:30:57.073Z,9.95
2023-08-29T06:33:26.017Z,8.38
2023-08-29T06:35:53.498Z,12.75
2023-08-29T06:38:20.961Z,16.10
2023-08-29T06:40:55.350Z,16.20
2023-08-29T06:43:22.971Z,16.63
2023-08-29T06:45:50.591Z,16.50
2023-08-29T06:48:18.113Z,16.73
2023-08-29T06:50:48.552Z,16.80
2023-08-29T06:53:16.056Z,16.63
2023-08-29T06:55:43.529Z,16.10
2023-08-29T06:58:11.010Z,17.70
2023-08-29T07:00:38.553Z,15.40
2023-08-29T07:03:06.662Z,16.42
2023-08-29T07:05:34.925Z,17.07
2023-08-29T07:08:05.056Z,16.85
2023-08-29T07:10:32.927Z,17.40
2023-08-29T07:13:00.408Z,16.25
2023-08-29T07:15:27.919Z,16.20
2023-08-29T07:17:55.459Z,15.10
2023-08-29T07:20:23.191Z,15.05
2023-08-29T07:22:50.694Z,15.32
2023-08-29T07:25:20.858Z,15.00
2023-08-29T07:27:48.331Z,14.98
2023-08-29T07:30:16.828Z,14.90
2023-08-29T07:32:45.463Z,15.52
2023-08-29T07:35:14.886Z,16.15
2023-08-29T07:37:42.432Z,14.40
2023-08-29T07:40:11.063Z,14.68
2023-08-29T07:42:39.979Z,14.67
2023-08-29T07:45:08.534Z,14.75
2023-08-29T07:47:36.201Z,14.40
2023-08-29T07:50:04.256Z,13.63
2023-08-29T07:52:31.756Z,12.02
2023-08-29T07:54:59.795Z,12.07
2023-08-29T07:57:27.343Z,14.02
2023-08-29T07:59:56.150Z,12.75
2023-08-29T08:02:23.719Z,10.45
2023-08-29T08:04:51.201Z,12.40
2023-08-29T08:07:18.790Z,9.23
2023-08-29T08:09:46.505Z,11.35
2023-08-29T08:12:14.050Z,10.80
2023-08-29T08:14:41.567Z,12.60
2023-08-29T08:17:10.935Z,11.25
2023-08-29T08:19:38.425Z,11.40
2023-08-29T08:22:06.210Z,10.35
2023-08-29T08:24:33.707Z,11.45
2023-08-29T08:27:01.270Z,9.65
2023-08-29T08:29:28.790Z,8.75
2023-08-29T08:31:56.273Z,8.03
2023-08-29T08:34:25.191Z,5.38
2023-08-29T08:36:52.728Z,5.60
2023-08-29T08:39:20.235Z,4.20
2023-08-29T08:41:47.763Z,5.35
2023-08-29T08:44:17.002Z,5.07
2023-08-29T08:46:46.032Z,4.30
2023-08-29T08:49:14.664Z,4.93
2023-08-29T08:51:43.847Z,4.78
2023-08-29T08:54:12.603Z,4.78
2023-08-29T08:56:40.810Z,4.67
2023-08-29T08:59:08.519Z,3.95
2023-08-29T09:01:36.061Z,4.35
2023-08-29T09:04:04.243Z,4.05
2023-08-29T09:06:32.254Z,4.43
2023-08-29T09:09:16.830Z,4.00
2023-08-29T09:11:44.549Z,3.22
2023-08-29T09:14:13.975Z,3.22
2023-08-29T09:16:41.820Z,3.70
2023-08-29T09:19:09.407Z,3.60
2023-08-29T09:21:37.569Z,3.17
2023-08-29T09:24:05.771Z,2.42
2023-08-29T09:26:36.064Z,3.35
2023-08-29T09:29:18.952Z,3.20
2023-08-29T09:31:48.027Z,3.25
2023-08-29T09:34:30.092Z,3.10
2023-08-29T09:36:58.692Z,2.33
2023-08-29T09:39:26.569Z,2.70
2023-08-29T09:42:02.934Z,2.45
2023-08-29T09:44:31.110Z,2.65
2023-08-29T09:46:58.665Z,2.40
2023-08-29T09:49:32.551Z,1.90
2023-08-29T09:52:03.567Z,2.22
2023-08-29T09:54:34.631Z,2.30
2023-08-29T09:57:06.719Z,1.83
2023-08-29T09:59:38.226Z,2.13
2023-08-29T10:02:06.495Z,2.13
2023-08-29T10:04:36.365Z,2.17
2023-08-29T10:07:06.839Z,2.85
2023-08-29T10:09:35.696Z,2.47
2023-08-29T10:12:06.315Z,2.27
2023-08-29T10:14:35.591Z,1.95
2023-08-29T10:17:08.410Z,2.22
2023-08-29T10:19:39.217Z,1.67
2023-08-29T10:22:08.481Z,1.75
2023-08-29T10:24:37.325Z,1.10
2023-08-29T10:27:06.736Z,1.13
2023-08-29T10:29:34.581Z,1.45
2023-08-29T10:32:03.833Z,1.50
2023-08-29T10:34:31.884Z,1.63
2023-08-29T10:37:01.076Z,1.73
2023-08-29T10:39:28.968Z,2.03
2023-08-29T10:41:57.807Z,1.90
2023-08-29T10:44:37.673Z,1.88
2023-08-29T10:47:27.717Z,1.20
2023-08-29T10:50:00.004Z,0.80
2023-08-29T10:52:38.328Z,1.00
2023-08-29T10:55:09.921Z,1.30
2023-08-29T10:57:37.564Z,1.70
2023-08-29T11:00:18.362Z,1.40
2023-08-29T11:02:46.677Z,1.40
2023-08-29T11:05:16.820Z,0.98
2023-08-29T11:07:47.998Z,1.25
2023-08-29T11:10:21.211Z,1.08
2023-08-29T11:13:07.421Z,1.20
2023-08-29T11:16:07.784Z,1.07
2023-08-29T11:18:36.072Z,1.20
2023-08-29T11:21:08.374Z,1.80
2023-08-29T11:23:39.650Z,1.88
2023-08-29T11:26:07.770Z,1.55
2023-08-29T11:28:36.180Z,1.73
2023-08-29T11:31:06.009Z,1.80
2023-08-29T11:33:36.437Z,2.00
2023-08-29T11:36:07.107Z,1.77
2023-08-29T11:38:38.656Z,2.33
2023-08-29T11:41:19.495Z,2.13
2023-08-29T11:44:25.166Z,3.28
2023-08-29T11:46:45.433Z,3.63
2023-08-29T11:49:15.632Z,3.58
2023-08-29T11:51:43.400Z,2.67
2023-08-29T11:54:42.274Z,3.20
2023-08-29T11:57:13.299Z,2.45
2023-08-29T11:59:42.687Z,2.53
2023-08-29T12:02:16.959Z,3.45
2023-08-29T12:04:48.871Z,3.50
2023-08-29T12:07:17.877Z,4.17
2023-08-29T12:09:47.340Z,4.53
2023-08-29T12:12:32.609Z,4.60
2023-08-29T12:15:01.012Z,5.13
2023-08-29T12:17:39.291Z,4.75
2023-08-29T12:20:31.097Z,4.87
2023-08-29T12:22:59.161Z,4.63
2023-08-29T12:25:28.037Z,4.63
2023-08-29T12:27:55.797Z,4.80
2023-08-29T12:30:23.675Z,3.70
2023-08-29T12:32:51.422Z,4.60
2023-08-29T12:35:19.941Z,5.05
2023-08-29T12:37:49.704Z,4.82
2023-08-29T12:40:18.684Z,6.22
2023-08-29T12:42:48.493Z,5.40
2023-08-29T12:45:16.232Z,5.70
2023-08-29T12:47:43.971Z,5.55
2023-08-29T12:50:15.953Z,4.97
2023-08-29T12:52:43.815Z,4.97
2023-08-29T12:55:13.496Z,3.72
2023-08-29T12:57:41.340Z,2.60
2023-08-29T13:00:10.757Z,2.75
2023-08-29T13:02:38.569Z,3.38
2023-08-29T13:05:07.736Z,3.03
2023-08-29T13:07:35.398Z,3.50
2023-08-29T13:10:06.304Z,2.80
2023-08-29T13:12:37.334Z,3.33
2023-08-29T13:15:06.763Z,4.00
2023-08-29T13:17:34.985Z,4.00
2023-08-29T13:20:02.759Z,4.25
2023-08-29T13:22:30.565Z,4.73
2023-08-29T13:24:59.361Z,4.50
2023-08-29T13:27:26.920Z,3.97
2023-08-29T13:29:55.827Z,4.07
2023-08-29T13:32:23.355Z,4.40
2023-08-29T13:34:50.867Z,2.67
2023-08-29T13:37:18.420Z,3.60
2023-08-29T13:39:45.984Z,1.98
2023-08-29T13:42:13.543Z,1.90
2023-08-29T13:44:41.053Z,2.30
2023-08-29T13:47:10.363Z,2.53
2023-08-29T13:49:37.914Z,2.53
2023-08-29T13:52:08.397Z,2.33
2023-08-29T13:54:37.064Z,1.77
2023-08-29T13:57:05.257Z,2.10
2023-08-29T13:59:33.118Z,2.40
2023-08-29T14:02:00.822Z,2.35
2023-08-29T14:04:29.772Z,2.28
2023-08-29T14:06:57.731Z,2.13
2023-08-29T14:09:25.276Z,1.70
2023-08-29T14:11:52.746Z,1.60
2023-08-29T14:14:20.274Z,1.60
2023-08-29T14:16:47.776Z,1.40
2023-08-29T14:19:15.307Z,1.48
2023-08-29T14:21:44.165Z,1.40
2023-08-29T14:24:11.777Z,1.20
2023-08-29T14:26:40.607Z,1.40
2023-08-29T14:29:08.528Z,1.33
2023-08-29T14:31:36.113Z,1.33
2023-08-29T14:34:03.758Z,1.23
2023-08-29T14:36:32.213Z,1.40
2023-08-29T14:39:01.839Z,1.40
2023-08-29T14:41:29.511Z,0.98
2023-08-29T14:43:57.173Z,2.55
2023-08-29T14:46:24.813Z,2.92
2023-08-29T14:48:52.461Z,2.20
2023-08-29T14:51:19.963Z,2.45
2023-08-29T14:53:47.501Z,2.55
2023-08-29T14:56:16.437Z,2.08
2023-08-29T14:58:45.270Z,1.55
2023-08-29T15:01:12.805Z,1.67
2023-08-29T15:03:40.707Z,1.98
2023-08-29T15:06:09.252Z,1.10
2023-08-29T15:08:36.740Z,1.55
2023-08-29T15:11:04.218Z,1.45
2023-08-29T15:13:33.033Z,1.10
2023-08-29T15:16:01.375Z,1.02
2023-08-29T15:18:28.997Z,1.00
2023-08-29T15:20:56.520Z,1.20
2023-08-29T15:23:25.384Z,0.95
2023-08-29T15:25:53.385Z,0.90
2023-08-29T15:28:21.139Z,1.02
2023-08-29T15:30:53.460Z,1.23
2023-08-29T15:33:22.064Z,1.20
2023-08-29T15:35:49.544Z,1.20
2023-08-29T15:38:17.067Z,1.30
2023-08-29T15:40:46.034Z,2.25
2023-08-29T15:43:15.425Z,1.38
2023-08-29T15:45:46.360Z,1.80
2023-08-29T15:48:15.654Z,2.28
2023-08-29T15:50:44.545Z,3.30
2023-08-29T15:53:12.383Z,3.05
2023-08-29T15:55:40.521Z,3.80
2023-08-29T15:58:09.657Z,3.58
2023-08-29T16:00:38.066Z,4.20
2023-08-29T16:03:07.627Z,3.87
2023-08-29T16:05:37.212Z,2.72
2023-08-29T16:08:05.887Z,3.78
2023-08-29T16:10:33.697Z,3.70
2023-08-29T16:13:01.663Z,3.30
2023-08-29T16:15:29.173Z,3.27
2023-08-29T16:17:56.794Z,3.00
2023-08-29T16:20:25.809Z,3.10
2023-08-29T16:22:56.339Z,3.30
2023-08-29T16:25:23.830Z,2.97
2023-08-29T16:27:51.308Z,3.10
2023-08-29T16:30:18.848Z,3.20
2023-08-29T16:32:46.559Z,2.88
2023-08-29T16:35:14.251Z,3.20
2023-08-29T16:37:41.728Z,3.40
2023-08-29T16:40:11.883Z,3.30
2023-08-29T16:42:39.398Z,3.80
2023-08-29T16:45:10.212Z,3.05
2023-08-29T16:47:37.947Z,3.10
2023-08-29T16:50:06.501Z,4.40
2023-08-29T16:52:33.993Z,3.80
2023-08-29T16:55:02.607Z,3.67
2023-08-29T16:57:31.409Z,3.40
2023-08-29T17:00:00.001Z,3.67
2023-08-29T17:02:28.629Z,3.50
2023-08-29T17:04:57.654Z,3.50
2023-08-29T17:07:26.414Z,3.67
2023-08-29T17:09:54.233Z,3.53
2023-08-29T17:12:23.232Z,3.47
2023-08-29T17:14:52.621Z,3.55
2023-08-29T17:17:20.478Z,3.33
2023-08-29T17:19:48.050Z,3.60
2023-08-29T17:22:15.610Z,3.80
2023-08-29T17:24:43.317Z,3.70
2023-08-29T17:27:10.803Z,3.72
2023-08-29T17:29:38.367Z,4.13
2023-08-29T17:32:08.420Z,3.20
2023-08-29T17:34:35.916Z,3.35
2023-08-29T17:37:03.525Z,3.17
2023-08-29T17:39:31.024Z,3.40
2023-08-29T17:41:58.658Z,3.67
2023-08-29T17:44:26.144Z,3.60
2023-08-29T17:46:53.643Z,3.65
2023-08-29T17:49:22.523Z,3.15
2023-08-29T17:51:50.064Z,2.83
2023-08-29T17:54:18.708Z,3.43
2023-08-29T17:56:46.388Z,2.88
2023-08-29T17:59:13.935Z,2.50
2023-08-29T18:01:41.599Z,2.35
2023-08-29T18:04:09.949Z,3.78
2023-08-29T18:06:38.835Z,4.07
2023-08-29T18:09:06.670Z,3.97
2023-08-29T18:11:34.291Z,3.97
2023-08-29T18:14:01.833Z,3.53
2023-08-29T18:16:29.572Z,3.42
2023-08-29T18:19:00.558Z,3.77
2023-08-29T18:21:28.521Z,4.22
2023-08-29T18:23:58.448Z,4.13
2023-08-29T18:26:26.185Z,3.50
2023-08-29T18:28:53.823Z,3.75
2023-08-29T18:31:21.431Z,3.67
2023-08-29T18:33:49.039Z,4.20
2023-08-29T18:36:16.554Z,3.90
2023-08-29T18:38:44.068Z,3.42
2023-08-29T18:41:12.891Z,3.00
2023-08-29T18:43:40.847Z,2.83
2023-08-29T18:46:08.970Z,2.60
2023-08-29T18:48:36.580Z,2.70
2023-08-29T18:51:04.121Z,2.20
2023-08-29T18:53:31.673Z,2.60
2023-08-29T18:55:59.475Z,2.47
2023-08-29T18:58:28.299Z,2.90
2023-08-29T19:00:55.814Z,2.75
2023-08-29T19:03:23.476Z,2.80
2023-08-29T19:05:51.014Z,2.95
2023-08-29T19:08:18.500Z,2.90
2023-08-29T19:10:47.523Z,3.05
2023-08-29T19:13:15.080Z,2.75
2023-08-29T19:15:43.936Z,2.63
2023-08-29T19:18:14.523Z,3.08
2023-08-29T19:20:42.301Z,2.50
2023-08-29T19:23:09.910Z,2.67
2023-08-29T19:25:37.411Z,2.70
2023-08-29T19:28:05.867Z,2.60
2023-08-29T19:30:35.186Z,3.08
2023-08-29T19:33:05.410Z,2.80
2023-08-29T19:35:36.198Z,2.78
2023-08-29T19:38:04.121Z,3.75
2023-08-29T19:40:31.830Z,3.92
2023-08-29T19:43:01.366Z,3.60
2023-08-29T19:45:29.623Z,2.63
2023-08-29T19:47:57.410Z,2.30
2023-08-29T19:50:26.425Z,2.13
2023-08-29T19:52:54.093Z,2.40
2023-08-29T19:55:22.773Z,2.22
2023-08-29T19:57:50.578Z,2.30
2023-08-29T20:00:18.981Z,2.17
2023-08-29T20:02:55.558Z,1.90
2023-08-29T20:05:24.428Z,2.03
2023-08-29T20:07:53.894Z,2.40
2023-08-29T20:10:22.742Z,2.27
2023-08-29T20:12:50.471Z,2.05
2023-08-29T20:15:19.166Z,2.47
2023-08-29T20:17:47.322Z,2.67
2023-08-29T20:20:15.282Z,1.95
2023-08-29T20:22:44.369Z,2.20
2023-08-29T20:25:13.324Z,2.60
2023-08-29T20:27:40.999Z,2.10
2023-08-29T20:30:10.407Z,2.35
2023-08-29T20:32:38.875Z,2.40
2023-08-29T20:35:07.976Z,2.13
2023-08-29T20:37:35.627Z,2.50
2023-08-29T20:40:04.960Z,2.40
2023-08-29T20:42:34.718Z,2.10
2023-08-29T20:45:02.479Z,2.50
2023-08-29T20:47:30.199Z,2.30
2023-08-29T20:49:57.915Z,1.88
2023-08-29T20:52:26.669Z,2.10
2023-08-29T20:54:54.400Z,1.92
2023-08-29T20:57:22.068Z,2.08
2023-08-29T20:59:51.151Z,2.17
2023-08-29T21:02:18.821Z,2.17
2023-08-29T21:04:46.691Z,2.33
2023-08-29T21:07:14.445Z,2.35
2023-08-29T21:09:42.604Z,2.10
2023-08-29T21:12:10.468Z,3.07
2023-08-29T21:14:38.205Z,2.50
2023-08-29T21:17:07.222Z,3.65
2023-08-29T21:19:35.376Z,2.17
2023-08-29T21:22:02.884Z,2.30
2023-08-29T21:24:30.490Z,2.40
2023-08-29T21:26:57.989Z,2.10
2023-08-29T21:29:25.534Z,2.00
2023-08-29T21:31:53.060Z,2.30
2023-08-29T21:34:23.277Z,2.30
2023-08-29T21:36:51.659Z,1.77
2023-08-29T21:39:19.195Z,2.40
2023-08-29T21:41:46.891Z,1.85
2023-08-29T21:44:14.460Z,2.03
2023-08-29T21:46:41.973Z,2.20
2023-08-29T21:49:09.471Z,1.73
2023-08-29T21:51:38.336Z,2.40
2023-08-29T21:54:06.158Z,2.22
2023-08-29T21:56:33.649Z,2.75
2023-08-29T21:59:01.144Z,2.30
2023-08-29T22:01:28.654Z,2.37
2023-08-29T22:03:56.705Z,2.13
2023-08-29T22:06:24.238Z,2.10
2023-08-29T22:08:53.065Z,1.90
2023-08-29T22:11:22.398Z,2.30
2023-08-29T22:13:49.924Z,2.13
2023-08-29T22:16:17.523Z,2.45
2023-08-29T22:18:45.093Z,2.58
2023-08-29T22:21:12.632Z,2.33
2023-08-29T22:23:40.140Z,2.05
2023-08-29T22:26:09.005Z,2.07
2023-08-29T22:28:36.559Z,1.95
2023-08-29T22:31:04.102Z,2.25
2023-08-29T22:33:32.781Z,2.20
2023-08-29T22:36:00.491Z,2.78
2023-08-29T22:38:28.092Z,2.53
2023-08-29T22:40:55.959Z,2.75
2023-08-29T22:43:24.790Z,2.88
2023-08-29T22:45:55.919Z,2.45
2023-08-29T22:48:23.537Z,2.70
2023-08-29T22:50:51.243Z,2.47
2023-08-29T22:53:18.940Z,2.83
2023-08-29T22:55:46.444Z,2.45
2023-08-29T22:58:13.956Z,2.60
2023-08-29T23:00:43.188Z,2.75
2023-08-29T23:03:11.004Z,3.20
2023-08-29T23:05:43.956Z,3.10
2023-08-29T23:08:12.390Z,3.05
2023-08-29T23:10:40.289Z,2.80
2023-08-29T23:13:07.780Z,2.97
2023-08-29T23:15:35.992Z,2.33
2023-08-29T23:18:05.489Z,3.15
2023-08-29T23:20:33.750Z,2.90
2023-08-29T23:23:01.273Z,2.92
2023-08-29T23:25:28.760Z,3.00
2023-08-29T23:27:56.298Z,3.00
2023-08-29T23:30:23.857Z,3.20
2023-08-29T23:32:51.397Z,3.40
2023-08-29T23:35:21.453Z,3.50
2023-08-29T23:37:48.957Z,3.22
2023-08-29T23:40:16.558Z,3.00
2023-08-29T23:42:44.073Z,2.95
2023-08-29T23:45:11.823Z,3.08
2023-08-29T23:47:39.334Z,3.10
2023-08-29T23:50:07.816Z,3.13
2023-08-29T23:52:36.700Z,3.00
2023-08-29T23:55:05.136Z,3.15
2023-08-29T23:57:32.630Z,3.20
